Time;durP1;ratioP1;P1;durP2;ratioP2;P2;SDS_P1;SDS_P2;PMS_P1;PMS_P2;Temp;Humidity;BMP_temperature;BMP_pressure;BME280_temperature;BME280_humidity;BME280_pressure;Samples;Min_cycle;Max_cycle;Signal;HPM_P1;HPM_P2
2023/01/14 00:01:25;;;;;;;70.90;36.03;;;;;;;;;;6217756;23;20001;-85
2023/01/14 00:03:51;;;;;;;63.65;34.80;;;;;;;;;;6220088;23;20079;-84
2023/01/14 00:06:18;;;;;;;68.95;35.08;;;;;;;;;;6239754;23;20000;-84
2023/01/14 00:08:44;;;;;;;71.38;36.15;;;;;;;;;;6218471;23;20012;-84
2023/01/14 00:11:10;;;;;;;71.55;37.17;;;;;;;;;;6245061;23;20000;-83
2023/01/14 00:13:37;;;;;;;73.05;36.10;;;;;;;;;;6217642;23;20094;-84
2023/01/14 00:16:03;;;;;;;68.93;34.80;;;;;;;;;;6242884;23;20000;-84
2023/01/14 00:18:30;;;;;;;66.60;35.63;;;;;;;;;;6243167;23;20062;-84
2023/01/14 00:21:06;;;;;;;66.82;35.20;;;;;;;;;;6192650;23;20446;-84
2023/01/14 00:23:32;;;;;;;69.07;35.72;;;;;;;;;;6244381;22;20003;-84
2023/01/14 00:26:05;;;;;;;68.32;35.17;;;;;;;;;;6192849;23;20008;-84
2023/01/14 00:28:30;;;;;;;71.13;36.33;;;;;;;;;;6217235;23;20092;-84
2023/01/14 00:31:03;;;;;;;73.10;36.30;;;;;;;;;;6255710;23;20004;-84
2023/01/14 00:33:28;;;;;;;72.85;36.83;;;;;;;;;;6260804;23;20000;-83
2023/01/14 00:35:54;;;;;;;75.07;36.78;;;;;;;;;;6242577;23;20320;-83
2023/01/14 00:38:19;;;;;;;71.57;35.47;;;;;;;;;;6243844;22;20008;-83
2023/01/14 00:40:45;;;;;;;71.47;35.90;;;;;;;;;;6217188;23;20062;-83
2023/01/14 00:43:10;;;;;;;72.38;36.53;;;;;;;;;;6217579;23;20035;-83
2023/01/14 00:45:35;;;;;;;71.53;34.53;;;;;;;;;;6243838;23;20011;-83
2023/01/14 00:48:03;;;;;;;70.53;34.25;;;;;;;;;;6218339;23;20044;-84
2023/01/14 00:50:28;;;;;;;70.65;36.28;;;;;;;;;;6244066;23;20008;-84
2023/01/14 00:52:54;;;;;;;69.32;33.85;;;;;;;;;;6244569;23;20498;-84
2023/01/14 00:55:19;;;;;;;72.65;36.13;;;;;;;;;;6167520;23;20007;-84
2023/01/14 00:57:44;;;;;;;62.83;33.30;;;;;;;;;;6192206;23;20335;-84
2023/01/14 01:00:11;;;;;;;62.88;32.83;;;;;;;;;;6217460;23;20004;-83
2023/01/14 01:02:36;;;;;;;60.08;30.70;;;;;;;;;;6217487;23;20023;-84
2023/01/14 01:05:01;;;;;;;61.40;30.38;;;;;;;;;;6243812;23;20004;-84
2023/01/14 01:07:27;;;;;;;55.90;29.88;;;;;;;;;;6214401;23;20309;-84
2023/01/14 01:09:52;;;;;;;55.58;29.05;;;;;;;;;;6217211;23;20000;-84
2023/01/14 01:12:18;;;;;;;56.28;29.85;;;;;;;;;;6191961;23;20036;-84
2023/01/14 01:14:43;;;;;;;56.67;29.55;;;;;;;;;;6217422;23;20007;-84
2023/01/14 01:17:09;;;;;;;55.28;29.27;;;;;;;;;;6244141;23;20058;-84
2023/01/14 01:19:34;;;;;;;54.03;27.98;;;;;;;;;;6218093;23;20332;-83
2023/01/14 01:21:59;;;;;;;53.50;28.23;;;;;;;;;;6194298;23;20082;-83
2023/01/14 01:24:25;;;;;;;55.25;28.55;;;;;;;;;;6218212;23;20016;-84
2023/01/14 01:26:50;;;;;;;52.90;28.58;;;;;;;;;;6245646;23;20062;-84
2023/01/14 01:29:16;;;;;;;53.55;27.70;;;;;;;;;;6218762;23;20004;-83
2023/01/14 01:31:41;;;;;;;52.20;26.13;;;;;;;;;;6219315;23;20000;-84
2023/01/14 01:34:07;;;;;;;52.22;27.85;;;;;;;;;;6194264;23;20000;-84
2023/01/14 01:36:32;;;;;;;52.03;27.67;;;;;;;;;;6245935;23;20339;-84
2023/01/14 01:38:58;;;;;;;53.83;27.17;;;;;;;;;;6246007;23;20019;-84
2023/01/14 01:41:26;;;;;;;52.03;27.65;;;;;;;;;;6219309;23;20004;-84
2023/01/14 01:44:08;;;;;;;55.17;27.52;;;;;;;;;;6194384;23;20054;-83
2023/01/14 01:46:33;;;;;;;51.85;27.00;;;;;;;;;;6218558;23;20446;-84
2023/01/14 01:49:41;;;;;;;53.38;26.88;;;;;;;;;;6194277;23;20004;-83
2023/01/14 01:52:12;;;;;;;52.35;27.25;;;;;;;;;;6160897;23;20043;-84
2023/01/14 01:54:41;;;;;;;52.78;27.20;;;;;;;;;;6195128;23;20004;-83
2023/01/14 01:57:07;;;;;;;55.58;27.60;;;;;;;;;;6247359;23;20000;-83
2023/01/14 01:59:34;;;;;;;50.72;27.50;;;;;;;;;;6196126;23;20048;-83
2023/01/14 02:02:00;;;;;;;52.65;26.65;;;;;;;;;;6196770;23;20000;-85
2023/01/14 02:04:25;;;;;;;52.67;26.73;;;;;;;;;;6198043;23;20089;-83
2023/01/14 02:06:51;;;;;;;56.53;28.90;;;;;;;;;;6198905;23;20024;-83
2023/01/14 02:09:16;;;;;;;57.38;28.33;;;;;;;;;;6220962;23;19992;-83
2023/01/14 02:12:01;;;;;;;54.78;28.15;;;;;;;;;;6198091;23;20011;-83
2023/01/14 02:14:32;;;;;;;58.80;28.92;;;;;;;;;;6197530;23;20001;-83
2023/01/14 02:17:16;;;;;;;59.13;29.58;;;;;;;;;;6247084;23;20028;-83
2023/01/14 02:19:48;;;;;;;58.78;29.27;;;;;;;;;;6222761;23;20000;-83
2023/01/14 02:22:32;;;;;;;55.92;29.17;;;;;;;;;;6220895;23;20008;-84
2023/01/14 02:25:25;;;;;;;60.97;29.98;;;;;;;;;;6257773;23;20007;-82
2023/01/14 02:28:22;;;;;;;61.05;29.10;;;;;;;;;;6254404;23;20091;-83
2023/01/14 02:31:07;;;;;;;61.17;30.65;;;;;;;;;;6218866;23;20004;-83
2023/01/14 02:33:36;;;;;;;57.75;29.67;;;;;;;;;;6197791;23;20000;-83
2023/01/14 02:36:24;;;;;;;60.03;30.17;;;;;;;;;;6245094;23;20010;-83
2023/01/14 02:39:02;;;;;;;62.45;31.00;;;;;;;;;;6206365;23;20389;-84
2023/01/14 02:44:36;;;;;;;65.35;30.70;;;;;;;;;;6222984;23;20015;-84
2023/01/14 02:47:16;;;;;;;63.75;31.23;;;;;;;;;;6219589;23;20331;-83
2023/01/14 02:49:43;;;;;;;61.40;30.38;;;;;;;;;;6219918;23;20000;-83
2023/01/14 02:52:08;;;;;;;63.65;31.27;;;;;;;;;;6245655;23;20000;-84
2023/01/14 02:54:34;;;;;;;64.65;30.70;;;;;;;;;;6245247;23;20446;-83
2023/01/14 02:57:18;;;;;;;64.93;32.50;;;;;;;;;;6244661;23;20007;-84
2023/01/14 02:59:46;;;;;;;65.35;30.83;;;;;;;;;;6221342;23;19999;-84
2023/01/14 03:02:43;;;;;;;65.05;32.72;;;;;;;;;;6245498;22;20083;-84
2023/01/14 03:05:37;;;;;;;72.40;33.60;;;;;;;;;;6220576;22;20077;-84
2023/01/14 03:08:28;;;;;;;63.58;31.15;;;;;;;;;;6194674;23;20008;-84
2023/01/14 03:11:02;;;;;;;63.55;30.27;;;;;;;;;;6201662;23;20004;-84
2023/01/14 03:13:35;;;;;;;65.68;33.00;;;;;;;;;;6241449;22;20131;-84
2023/01/14 03:16:15;;;;;;;60.53;30.17;;;;;;;;;;6219017;23;20004;-83
2023/01/14 03:19:05;;;;;;;69.45;34.85;;;;;;;;;;6193886;23;20069;-83
2023/01/14 03:21:35;;;;;;;67.57;32.47;;;;;;;;;;6243858;23;20307;-84
2023/01/14 03:24:29;;;;;;;68.93;33.28;;;;;;;;;;6218186;23;20082;-84
2023/01/14 03:26:55;;;;;;;67.28;31.55;;;;;;;;;;6237810;23;20008;-85
2023/01/14 03:29:25;;;;;;;62.03;31.27;;;;;;;;;;6218329;23;20078;-85
2023/01/14 03:32:02;;;;;;;69.60;32.80;;;;;;;;;;6193277;23;20027;-85
2023/01/14 03:34:30;;;;;;;70.22;30.73;;;;;;;;;;6194633;23;20488;-84
2023/01/14 03:36:56;;;;;;;72.15;33.15;;;;;;;;;;6218586;23;20007;-85
2023/01/14 03:39:22;;;;;;;72.13;32.47;;;;;;;;;;6217801;23;20008;-86
2023/01/14 03:45:15;;;;;;;84.13;36.30;;;;;;;;;;6222379;23;20074;-85
2023/01/14 03:47:41;;;;;;;79.38;36.30;;;;;;;;;;6222853;23;20493;-85
2023/01/14 03:50:09;;;;;;;79.60;39.58;;;;;;;;;;6194133;23;20004;-85
2023/01/14 03:52:34;;;;;;;85.28;39.00;;;;;;;;;;6218681;23;20065;-85
2023/01/14 03:55:03;;;;;;;74.97;36.97;;;;;;;;;;6243217;23;20494;-84
2023/01/14 03:58:01;;;;;;;74.45;36.63;;;;;;;;;;6217814;23;20450;-84
2023/01/14 04:00:29;;;;;;;66.07;33.35;;;;;;;;;;6211059;23;20004;-85
2023/01/14 04:02:55;;;;;;;67.75;32.28;;;;;;;;;;6218130;23;20318;-85
2023/01/14 04:05:20;;;;;;;60.33;32.17;;;;;;;;;;6217575;23;20015;-85
2023/01/14 04:07:48;;;;;;;65.10;32.83;;;;;;;;;;6243237;23;20047;-85
2023/01/14 04:10:14;;;;;;;66.75;33.60;;;;;;;;;;6217795;23;20000;-84
2023/01/14 04:15:20;;;;;;;69.50;35.33;;;;;;;;;;6217788;23;20031;-85
2023/01/14 04:15:24;;;;;;;66.75;35.15;;;;;;;;;;6241085;23;20008;-85
2023/01/14 04:17:50;;;;;;;68.25;34.60;;;;;;;;;;6242604;23;20435;-85
2023/01/14 04:20:15;;;;;;;64.60;33.72;;;;;;;;;;6242845;23;20451;-85
2023/01/14 04:22:41;;;;;;;62.05;32.63;;;;;;;;;;6243066;23;20011;-85
2023/01/14 04:25:07;;;;;;;63.63;32.33;;;;;;;;;;6242941;23;20062;-85
2023/01/14 04:27:32;;;;;;;67.97;32.63;;;;;;;;;;6242357;23;20011;-85
2023/01/14 04:29:57;;;;;;;66.47;33.88;;;;;;;;;;6217597;23;20004;-85
2023/01/14 04:32:23;;;;;;;67.72;35.20;;;;;;;;;;6217767;23;20409;-85
2023/01/14 04:34:48;;;;;;;66.10;35.38;;;;;;;;;;6244226;22;19996;-85
2023/01/14 04:37:14;;;;;;;66.30;35.55;;;;;;;;;;6242952;23;20004;-85
2023/01/14 04:39:39;;;;;;;69.88;36.72;;;;;;;;;;6244199;22;20004;-84
2023/01/14 04:44:49;;;;;;;73.63;39.50;;;;;;;;;;6245225;23;20070;-84
2023/01/14 04:47:15;;;;;;;70.35;38.00;;;;;;;;;;6218975;23;20074;-85
2023/01/14 04:49:41;;;;;;;80.90;44.92;;;;;;;;;;6223884;23;20419;-85
2023/01/14 04:52:06;;;;;;;81.57;45.42;;;;;;;;;;6222025;23;20000;-85
2023/01/14 04:54:32;;;;;;;80.13;45.15;;;;;;;;;;6250994;23;20050;-85
2023/01/14 04:56:57;;;;;;;85.47;46.20;;;;;;;;;;6227901;23;20004;-84
2023/01/14 04:59:22;;;;;;;84.20;45.45;;;;;;;;;;6270711;22;20001;-84
2023/01/14 05:01:48;;;;;;;81.85;44.35;;;;;;;;;;6241832;23;20011;-84
2023/01/14 05:04:13;;;;;;;79.65;42.67;;;;;;;;;;6266845;23;20047;-83
2023/01/14 05:06:39;;;;;;;77.70;42.20;;;;;;;;;;6210962;23;20016;-84
2023/01/14 05:09:04;;;;;;;72.55;39.03;;;;;;;;;;6257115;23;20003;-84
2023/01/14 05:11:29;;;;;;;73.60;38.40;;;;;;;;;;6225214;23;20004;-84
2023/01/14 05:13:55;;;;;;;70.65;37.72;;;;;;;;;;6226026;23;20003;-86
2023/01/14 05:16:20;;;;;;;70.28;37.53;;;;;;;;;;6195861;23;20462;-84
2023/01/14 05:18:46;;;;;;;73.20;37.70;;;;;;;;;;6244236;23;20008;-85
2023/01/14 05:21:11;;;;;;;76.38;37.08;;;;;;;;;;6217346;23;20000;-84
2023/01/14 05:23:38;;;;;;;73.28;37.05;;;;;;;;;;6219632;23;20051;-85
2023/01/14 05:26:04;;;;;;;76.22;37.30;;;;;;;;;;6217612;23;20323;-85
2023/01/14 05:28:29;;;;;;;76.93;37.58;;;;;;;;;;6217994;23;20419;-84
2023/01/14 05:30:55;;;;;;;78.80;36.17;;;;;;;;;;6191989;23;20090;-85
2023/01/14 05:33:20;;;;;;;75.82;37.05;;;;;;;;;;6192084;23;20054;-85
2023/01/14 05:35:46;;;;;;;75.07;37.88;;;;;;;;;;6216999;23;20483;-84
2023/01/14 05:38:11;;;;;;;74.88;36.83;;;;;;;;;;6243721;23;20000;-85
2023/01/14 05:40:37;;;;;;;69.50;36.88;;;;;;;;;;6192366;23;20000;-85
2023/01/14 05:45:49;;;;;;;75.85;38.58;;;;;;;;;;6199952;23;20026;-84
2023/01/14 05:48:25;;;;;;;76.07;36.55;;;;;;;;;;6192540;23;20394;-85
2023/01/14 05:50:54;;;;;;;74.63;36.85;;;;;;;;;;6167668;23;20072;-85
2023/01/14 05:53:20;;;;;;;71.97;36.33;;;;;;;;;;6192726;23;20005;-85
2023/01/14 05:55:46;;;;;;;79.10;37.20;;;;;;;;;;6192944;23;20087;-85
2023/01/14 05:58:11;;;;;;;78.30;34.85;;;;;;;;;;6192966;23;20000;-85
2023/01/14 06:06:25;;;;;;;80.60;40.00;;;;;;;;;;6206358;23;20019;-85
2023/01/14 06:09:11;;;;;;;90.60;41.80;;;;;;;;;;6199319;23;20048;-85
2023/01/14 06:11:40;;;;;;;88.35;40.97;;;;;;;;;;6249995;23;20008;-85
2023/01/14 06:14:06;;;;;;;83.28;40.40;;;;;;;;;;6224222;23;20075;-85
2023/01/14 06:16:39;;;;;;;85.32;41.28;;;;;;;;;;6198333;23;20011;-85
2023/01/14 06:19:05;;;;;;;87.97;44.20;;;;;;;;;;6194601;23;20027;-85
2023/01/14 06:21:31;;;;;;;83.75;42.53;;;;;;;;;;6219579;23;20015;-84
2023/01/14 06:23:57;;;;;;;75.15;38.08;;;;;;;;;;6245266;23;20323;-85
2023/01/14 06:26:31;;;;;;;82.22;40.72;;;;;;;;;;6218825;23;20008;-85
2023/01/14 06:28:57;;;;;;;81.35;38.15;;;;;;;;;;6197134;23;20049;-85
2023/01/14 06:31:23;;;;;;;78.53;39.72;;;;;;;;;;6193890;23;20012;-85
2023/01/14 06:33:48;;;;;;;79.57;39.35;;;;;;;;;;6245193;23;20497;-84
2023/01/14 06:36:14;;;;;;;74.97;38.60;;;;;;;;;;6218030;23;20015;-85
2023/01/14 06:38:40;;;;;;;78.97;38.65;;;;;;;;;;6221980;23;20101;-84
2023/01/14 06:41:07;;;;;;;86.75;41.58;;;;;;;;;;6218452;23;20082;-85
2023/01/14 06:43:33;;;;;;;90.78;44.63;;;;;;;;;;6218906;23;20008;-85
2023/01/14 06:45:58;;;;;;;95.35;43.53;;;;;;;;;;6218919;23;20473;-84
2023/01/14 06:48:24;;;;;;;90.60;44.20;;;;;;;;;;6243755;23;20011;-85
2023/01/14 06:50:49;;;;;;;90.22;45.03;;;;;;;;;;6218591;23;20338;-84
2023/01/14 06:53:15;;;;;;;89.47;42.47;;;;;;;;;;6243981;23;20031;-85
2023/01/14 06:55:41;;;;;;;85.03;42.25;;;;;;;;;;6244026;23;20008;-85
2023/01/14 06:58:06;;;;;;;95.55;44.67;;;;;;;;;;6217197;23;20067;-84
2023/01/14 07:00:32;;;;;;;88.80;43.03;;;;;;;;;;6243091;23;20073;-84
2023/01/14 07:02:57;;;;;;;93.18;43.47;;;;;;;;;;6216615;23;20449;-84
2023/01/14 07:05:23;;;;;;;90.90;42.55;;;;;;;;;;6244830;23;20008;-84
2023/01/14 07:07:48;;;;;;;88.05;41.17;;;;;;;;;;6242340;23;20001;-84
2023/01/14 07:10:15;;;;;;;84.20;41.78;;;;;;;;;;6243184;23;20004;-84
2023/01/14 07:12:47;;;;;;;86.57;45.35;;;;;;;;;;6245820;22;20000;-84
2023/01/14 07:15:13;;;;;;;96.13;46.95;;;;;;;;;;6193757;23;20061;-84
2023/01/14 07:17:39;;;;;;;102.15;53.35;;;;;;;;;;6218196;23;20004;-84
2023/01/14 07:20:06;;;;;;;97.60;51.92;;;;;;;;;;6217460;23;20078;-84
2023/01/14 07:22:32;;;;;;;94.65;48.47;;;;;;;;;;6187990;23;20138;-84
2023/01/14 07:24:57;;;;;;;93.20;45.30;;;;;;;;;;6241876;23;20004;-84
2023/01/14 07:27:22;;;;;;;87.65;40.55;;;;;;;;;;6242040;23;20023;-83
2023/01/14 07:29:48;;;;;;;79.60;39.50;;;;;;;;;;6242193;23;20437;-85
2023/01/14 07:32:13;;;;;;;83.88;40.50;;;;;;;;;;6217820;23;20004;-85
2023/01/14 07:34:39;;;;;;;77.13;38.30;;;;;;;;;;6244505;23;20076;-85
2023/01/14 07:37:04;;;;;;;81.32;37.88;;;;;;;;;;6257382;22;20000;-84
2023/01/14 07:39:30;;;;;;;76.50;37.45;;;;;;;;;;6257863;22;20014;-82
2023/01/14 07:41:55;;;;;;;79.13;35.25;;;;;;;;;;6224903;23;20000;-84
2023/01/14 07:44:23;;;;;;;67.40;33.22;;;;;;;;;;6247977;23;19996;-84
2023/01/14 07:46:53;;;;;;;70.22;33.05;;;;;;;;;;6197335;23;20004;-84
2023/01/14 07:49:19;;;;;;;75.20;32.53;;;;;;;;;;6193343;23;20004;-84
2023/01/14 07:51:44;;;;;;;68.90;31.60;;;;;;;;;;6244709;23;20344;-84
2023/01/14 07:54:10;;;;;;;66.32;30.02;;;;;;;;;;6245225;23;20004;-83
2023/01/14 07:56:35;;;;;;;65.03;31.40;;;;;;;;;;6192955;23;20000;-83
2023/01/14 07:59:00;;;;;;;77.20;34.42;;;;;;;;;;6218099;23;20019;-84
2023/01/14 08:01:26;;;;;;;72.50;33.58;;;;;;;;;;6218104;23;20333;-84
2023/01/14 08:03:51;;;;;;;67.30;30.58;;;;;;;;;;6217554;23;20399;-84
2023/01/14 08:06:17;;;;;;;65.20;30.25;;;;;;;;;;6244329;23;20005;-85
2023/01/14 08:08:42;;;;;;;61.03;29.30;;;;;;;;;;6244637;23;20003;-85
2023/01/14 08:11:07;;;;;;;67.15;31.17;;;;;;;;;;6218192;23;20043;-85
2023/01/14 08:13:33;;;;;;;62.92;28.48;;;;;;;;;;6218036;23;20007;-85
2023/01/14 08:15:59;;;;;;;67.32;31.20;;;;;;;;;;6244850;23;20000;-85
2023/01/14 08:18:25;;;;;;;70.55;31.60;;;;;;;;;;6192821;23;20031;-85
2023/01/14 08:21:00;;;;;;;67.38;31.33;;;;;;;;;;6192804;23;20004;-85
2023/01/14 08:23:26;;;;;;;66.35;30.02;;;;;;;;;;6241298;23;20382;-85
2023/01/14 08:25:52;;;;;;;67.85;29.98;;;;;;;;;;6192384;23;20110;-86
2023/01/14 08:28:17;;;;;;;73.50;32.35;;;;;;;;;;6216261;23;20003;-85
2023/01/14 08:30:43;;;;;;;67.38;31.00;;;;;;;;;;6217046;23;20039;-85
2023/01/14 08:33:09;;;;;;;65.00;30.05;;;;;;;;;;6243465;23;20003;-85
2023/01/14 08:35:39;;;;;;;74.43;32.55;;;;;;;;;;6217366;23;20011;-85
2023/01/14 08:38:05;;;;;;;63.00;29.25;;;;;;;;;;6245367;23;20007;-85
2023/01/14 08:40:31;;;;;;;65.45;29.88;;;;;;;;;;6217906;23;20000;-86
2023/01/14 08:42:56;;;;;;;63.67;29.85;;;;;;;;;;6217994;23;20003;-85
2023/01/14 08:45:21;;;;;;;55.47;25.83;;;;;;;;;;6243204;23;20066;-85
2023/01/14 08:47:47;;;;;;;52.22;25.00;;;;;;;;;;6190608;23;20054;-86
2023/01/14 08:50:12;;;;;;;50.47;25.05;;;;;;;;;;6242524;23;20054;-86
2023/01/14 08:52:38;;;;;;;59.78;27.63;;;;;;;;;;6249258;23;20000;-86
2023/01/14 08:55:03;;;;;;;57.60;28.17;;;;;;;;;;6209204;23;20036;-85
2023/01/14 08:57:29;;;;;;;57.20;27.65;;;;;;;;;;6189780;23;20007;-85
2023/01/14 08:59:54;;;;;;;60.15;26.40;;;;;;;;;;6214636;23;20008;-86
2023/01/14 09:02:20;;;;;;;55.67;27.60;;;;;;;;;;6189849;23;20000;-85
2023/01/14 09:04:45;;;;;;;52.78;27.83;;;;;;;;;;6188929;23;20066;-85
2023/01/14 09:18:06;;;;;;;39.08;20.33;;;;;;;;;;6219617;23;20071;-84
2023/01/14 09:20:35;;;;;;;45.25;23.17;;;;;;;;;;6244101;23;20004;-85
2023/01/14 09:23:01;;;;;;;44.80;23.30;;;;;;;;;;6218338;23;20004;-83
2023/01/14 09:25:26;;;;;;;43.05;22.75;;;;;;;;;;6191487;23;20007;-84
2023/01/14 09:27:52;;;;;;;42.88;20.95;;;;;;;;;;6213457;23;20130;-85
2023/01/14 09:30:17;;;;;;;38.78;20.38;;;;;;;;;;6166435;23;20060;-83
2023/01/14 09:32:44;;;;;;;40.15;21.40;;;;;;;;;;6190391;23;20004;-85
2023/01/14 09:35:10;;;;;;;41.63;21.45;;;;;;;;;;6215740;23;20419;-84
2023/01/14 09:37:36;;;;;;;42.25;22.27;;;;;;;;;;6216806;23;20000;-85
2023/01/14 09:40:02;;;;;;;38.97;21.35;;;;;;;;;;6239381;23;20069;-85
2023/01/14 09:42:41;;;;;;;42.55;22.20;;;;;;;;;;6244278;23;20019;-86
2023/01/14 09:45:30;;;;;;;44.10;22.63;;;;;;;;;;6244090;23;20032;-85
2023/01/14 09:47:58;;;;;;;40.95;21.95;;;;;;;;;;6222463;23;20014;-85
2023/01/14 09:50:39;;;;;;;41.17;21.05;;;;;;;;;;6244819;23;20457;-85
2023/01/14 09:53:07;;;;;;;;;;;;;;;;;;6245478;23;20035;-85
2023/01/14 09:55:51;;;;;;;38.97;20.35;;;;;;;;;;6246374;22;19972;-85
2023/01/14 09:58:20;;;;;;;39.03;19.77;;;;;;;;;;6220466;23;19996;-85
2023/01/14 10:01:21;;;;;;;40.75;21.05;;;;;;;;;;6222085;23;20034;-85
2023/01/14 10:03:52;;;;;;;41.38;19.40;;;;;;;;;;6181984;22;20002;-85
2023/01/14 10:06:18;;;;;;;40.67;21.35;;;;;;;;;;6249798;23;20004;-85
2023/01/14 10:08:45;;;;;;;44.80;22.52;;;;;;;;;;6249625;22;20011;-84
2023/01/14 10:11:11;;;;;;;50.65;22.30;;;;;;;;;;6222564;23;20012;-84
2023/01/14 10:13:40;;;;;;;43.40;22.83;;;;;;;;;;6222077;23;20000;-84
2023/01/14 10:16:21;;;;;;;42.20;21.42;;;;;;;;;;6222956;23;20005;-84
2023/01/14 10:18:53;;;;;;;43.22;20.95;;;;;;;;;;6195459;23;20066;-84
2023/01/14 10:21:40;;;;;;;45.15;23.77;;;;;;;;;;6217876;23;20028;-85
2023/01/14 10:24:10;;;;;;;49.17;23.40;;;;;;;;;;6242142;23;20011;-84
2023/01/14 10:26:36;;;;;;;45.83;22.00;;;;;;;;;;6242508;23;20000;-84
2023/01/14 10:29:13;;;;;;;43.63;22.58;;;;;;;;;;6240311;23;20142;-84
2023/01/14 10:31:39;;;;;;;43.88;21.77;;;;;;;;;;6193402;23;20036;-84
2023/01/14 10:34:05;;;;;;;47.83;23.02;;;;;;;;;;6241790;23;20262;-84
2023/01/14 10:36:30;;;;;;;48.80;23.10;;;;;;;;;;6217402;23;20007;-84
2023/01/14 10:38:56;;;;;;;50.08;23.88;;;;;;;;;;6241905;23;20363;-84
2023/01/14 10:41:48;;;;;;;48.67;23.38;;;;;;;;;;6216960;23;20074;-84
2023/01/14 10:44:29;;;;;;;41.03;20.77;;;;;;;;;;6220642;23;20507;-85
2023/01/14 10:47:03;;;;;;;43.28;21.70;;;;;;;;;;6219015;23;20095;-84
2023/01/14 10:49:53;;;;;;;42.38;20.45;;;;;;;;;;6218519;23;20042;-85
2023/01/14 10:52:24;;;;;;;40.88;21.48;;;;;;;;;;6224864;23;20012;-85
2023/01/14 10:55:18;;;;;;;39.22;20.80;;;;;;;;;;6244504;23;20010;-84
2023/01/14 10:57:48;;;;;;;42.03;20.30;;;;;;;;;;6239236;23;20062;-85
2023/01/14 11:00:34;;;;;;;41.47;20.05;;;;;;;;;;6244649;23;19993;-85
2023/01/14 11:03:00;;;;;;;72.05;31.30;;;;;;;;;;6218675;23;20054;-84
2023/01/14 11:05:34;;;;;;;50.55;24.05;;;;;;;;;;6243557;23;20004;-84
2023/01/14 11:08:02;;;;;;;45.15;22.58;;;;;;;;;;6243780;23;20351;-84
2023/01/14 11:10:29;;;;;;;49.38;23.67;;;;;;;;;;6193969;23;20004;-84
2023/01/14 11:13:25;;;;;;;40.15;20.80;;;;;;;;;;6218472;23;20004;-82
2023/01/14 11:15:50;;;;;;;54.72;27.48;;;;;;;;;;6245374;22;20123;-83
2023/01/14 11:18:19;;;;;;;41.92;21.77;;;;;;;;;;6218683;23;20447;-84
2023/01/14 11:21:15;;;;;;;66.53;32.05;;;;;;;;;;6244877;23;20011;-84
2023/01/14 11:23:43;;;;;;;69.38;34.10;;;;;;;;;;6222593;23;20000;-83
2023/01/14 11:26:10;;;;;;;73.40;39.50;;;;;;;;;;6244784;22;20004;-84
2023/01/14 11:28:38;;;;;;;58.00;29.75;;;;;;;;;;6218199;23;20012;-83
2023/01/14 11:31:03;;;;;;;50.72;27.63;;;;;;;;;;6216172;23;20524;-84
2023/01/14 11:33:29;;;;;;;55.05;28.23;;;;;;;;;;6243428;23;20011;-83
2023/01/14 11:35:55;;;;;;;51.83;25.65;;;;;;;;;;6243684;23;20004;-83
2023/01/14 11:38:25;;;;;;;43.78;21.15;;;;;;;;;;6218619;23;20066;-83
2023/01/14 11:43:55;;;;;;;46.20;22.42;;;;;;;;;;6247528;23;20485;-83
2023/01/14 11:46:20;;;;;;;43.28;22.65;;;;;;;;;;6194495;23;20008;-83
2023/01/14 11:48:57;;;;;;;46.20;23.25;;;;;;;;;;6193681;23;20327;-84
2023/01/14 11:51:25;;;;;;;47.28;23.42;;;;;;;;;;6193587;23;20004;-83
2023/01/14 11:53:52;;;;;;;48.25;23.02;;;;;;;;;;6245503;23;20045;-83
2023/01/14 11:56:32;;;;;;;55.45;27.02;;;;;;;;;;6217883;23;20000;-83
2023/01/14 11:58:58;;;;;;;51.37;26.23;;;;;;;;;;6218528;23;20054;-84
2023/01/14 12:01:36;;;;;;;53.15;26.10;;;;;;;;;;6218308;23;20007;-84
2023/01/14 12:04:08;;;;;;;46.95;23.48;;;;;;;;;;6192828;23;20042;-83
2023/01/14 12:06:52;;;;;;;54.95;27.52;;;;;;;;;;6219258;23;20000;-83
2023/01/14 12:09:24;;;;;;;51.63;25.98;;;;;;;;;;6193077;23;20351;-83
2023/01/14 12:12:01;;;;;;;41.15;21.42;;;;;;;;;;6193412;23;20006;-84
2023/01/14 12:17:27;;;;;;;39.15;20.02;;;;;;;;;;6201660;23;20094;-83
2023/01/14 12:19:58;;;;;;;51.85;27.85;;;;;;;;;;6218286;23;20008;-84
2023/01/14 12:22:34;;;;;;;43.78;21.20;;;;;;;;;;6193990;23;20004;-84
2023/01/14 12:25:21;;;;;;;39.72;20.13;;;;;;;;;;6217952;23;20000;-83
2023/01/14 12:27:59;;;;;;;34.25;17.48;;;;;;;;;;6244940;23;20038;-83
2023/01/14 12:30:39;;;;;;;34.45;18.52;;;;;;;;;;6196818;23;19996;-83
2023/01/14 12:33:08;;;;;;;;;;;;;;;;;;6217229;23;20404;-83
2023/01/14 12:35:44;;;;;;;37.08;19.20;;;;;;;;;;6244757;23;19970;-83
2023/01/14 12:47:12;;;;;;;38.08;19.60;;;;;;;;;;6203983;23;20015;-84
2023/01/14 12:49:39;;;;;;;43.78;21.50;;;;;;;;;;6232229;23;20000;-82
2023/01/14 12:52:05;;;;;;;39.90;21.25;;;;;;;;;;6182016;23;20382;-83
2023/01/14 12:54:32;;;;;;;42.15;21.65;;;;;;;;;;6223454;23;20007;-85
2023/01/14 12:56:58;;;;;;;44.80;22.00;;;;;;;;;;6193156;23;20333;-86
2023/01/14 12:59:43;;;;;;;43.83;21.60;;;;;;;;;;6192490;23;20419;-83
2023/01/14 13:02:21;;;;;;;42.13;20.88;;;;;;;;;;6193917;23;20008;-83
2023/01/14 13:04:54;;;;;;;43.75;19.95;;;;;;;;;;6217574;23;20004;-84
2023/01/14 13:07:24;;;;;;;45.78;23.50;;;;;;;;;;6217906;23;20050;-85
2023/01/14 13:09:52;;;;;;;;;;;;;;;;;;6218405;23;19996;-85
2023/01/14 13:12:28;;;;;;;38.30;19.48;;;;;;;;;;6244613;23;19935;-85
2023/01/14 13:14:55;;;;;;;40.58;20.33;;;;;;;;;;6194021;23;20000;-84
2023/01/14 13:17:39;;;;;;;41.63;21.75;;;;;;;;;;6194987;23;20367;-85
2023/01/14 13:20:27;;;;;;;39.88;21.00;;;;;;;;;;6170134;23;20004;-84
2023/01/14 13:22:53;;;;;;;41.70;21.73;;;;;;;;;;6245603;23;20008;-85
2023/01/14 13:25:40;;;;;;;40.15;21.88;;;;;;;;;;6195032;23;20004;-85
2023/01/14 13:28:12;;;;;;;44.28;22.05;;;;;;;;;;6219313;23;20008;-84
2023/01/14 13:30:45;;;;;;;43.83;22.52;;;;;;;;;;6219556;23;20000;-85
2023/01/14 13:33:24;;;;;;;47.70;23.92;;;;;;;;;;6216510;23;20062;-85
2023/01/14 13:36:11;;;;;;;80.88;36.58;;;;;;;;;;6246628;23;20000;-84
2023/01/14 13:38:39;;;;;;;60.42;28.80;;;;;;;;;;6246174;23;20035;-85
2023/01/14 13:41:07;;;;;;;49.40;25.48;;;;;;;;;;6220451;23;20065;-85
2023/01/14 13:43:45;;;;;;;47.08;23.98;;;;;;;;;;6195608;23;20062;-84
2023/01/14 13:46:34;;;;;;;39.70;20.90;;;;;;;;;;6246300;23;20004;-84
2023/01/14 13:49:01;;;;;;;43.47;22.35;;;;;;;;;;6220986;23;20004;-84
2023/01/14 13:51:46;;;;;;;44.90;23.20;;;;;;;;;;6194959;23;20406;-84
2023/01/14 13:54:11;;;;;;;42.13;21.92;;;;;;;;;;6200017;23;20390;-85
2023/01/14 13:56:41;;;;;;;45.63;23.80;;;;;;;;;;6221043;23;20057;-84
2023/01/14 13:59:17;;;;;;;45.95;25.75;;;;;;;;;;6200999;23;20012;-85
2023/01/14 14:01:46;;;;;;;45.80;24.67;;;;;;;;;;6200788;23;19996;-85
2023/01/14 14:04:12;;;;;;;50.78;25.27;;;;;;;;;;6225656;23;20004;-84
2023/01/14 14:06:42;;;;;;;45.33;24.42;;;;;;;;;;6198899;23;20023;-84
2023/01/14 14:09:17;;;;;;;46.33;23.70;;;;;;;;;;6249035;23;20007;-84
2023/01/14 14:12:10;;;;;;;50.33;24.30;;;;;;;;;;6248864;23;20000;-84
2023/01/14 14:14:38;;;;;;;48.05;25.45;;;;;;;;;;6247832;23;20004;-84
2023/01/14 14:17:05;;;;;;;48.80;24.70;;;;;;;;;;6197082;23;20000;-85
2023/01/14 14:19:40;;;;;;;59.00;31.30;;;;;;;;;;6196158;23;20054;-85
2023/01/14 14:22:14;;;;;;;54.47;28.20;;;;;;;;;;6248697;23;20000;-84
2023/01/14 14:24:56;;;;;;;51.38;26.60;;;;;;;;;;6224971;23;20004;-84
2023/01/14 14:27:41;;;;;;;51.33;27.33;;;;;;;;;;6196922;23;20000;-84
2023/01/14 14:30:12;;;;;;;55.33;27.48;;;;;;;;;;6220061;23;20083;-84
2023/01/14 14:32:39;;;;;;;67.35;34.42;;;;;;;;;;6245904;23;19999;-84
2023/01/14 14:35:08;;;;;;;108.25;65.13;;;;;;;;;;6217017;23;20011;-84
2023/01/14 14:37:34;;;;;;;65.13;35.65;;;;;;;;;;6193889;23;20004;-85
2023/01/14 14:39:59;;;;;;;89.13;47.47;;;;;;;;;;6210744;23;20401;-84
2023/01/14 14:42:25;;;;;;;80.32;40.58;;;;;;;;;;6244038;23;20008;-84
2023/01/14 14:44:57;;;;;;;119.32;55.15;;;;;;;;;;6243778;23;20058;-84
2023/01/14 14:47:30;;;;;;;148.63;62.20;;;;;;;;;;6244291;23;20004;-84
2023/01/14 14:49:56;;;;;;;75.53;37.92;;;;;;;;;;6245434;22;20397;-85
2023/01/14 14:52:21;;;;;;;59.65;32.67;;;;;;;;;;6219122;23;20004;-85
2023/01/14 14:54:48;;;;;;;68.85;35.30;;;;;;;;;;6244404;23;20035;-85
2023/01/14 14:57:22;;;;;;;66.75;31.13;;;;;;;;;;6243627;23;20000;-85
2023/01/14 14:59:48;;;;;;;63.08;30.35;;;;;;;;;;6218961;23;20035;-84
2023/01/14 15:02:26;;;;;;;67.95;32.33;;;;;;;;;;6244188;23;20003;-84
2023/01/14 15:04:53;;;;;;;73.35;33.35;;;;;;;;;;6243839;23;20015;-85
2023/01/14 15:07:19;;;;;;;67.70;33.10;;;;;;;;;;6219091;23;20054;-84
2023/01/14 15:09:46;;;;;;;79.72;35.88;;;;;;;;;;6218612;23;20011;-84
2023/01/14 15:12:16;;;;;;;92.82;40.55;;;;;;;;;;6219389;23;20028;-85
2023/01/14 15:14:43;;;;;;;205.40;67.97;;;;;;;;;;6194793;23;20038;-85
2023/01/14 15:17:17;;;;;;;125.10;48.38;;;;;;;;;;6219372;23;20004;-84
2023/01/14 15:19:43;;;;;;;80.70;39.67;;;;;;;;;;6221010;23;20432;-85